Time;durP1;ratioP1;P1;durP2;ratioP2;P2;SDS_P1;SDS_P2;PMS_P1;PMS_P2;Temp;Humidity;BMP_temperature;BMP_pressure;BME280_temperature;BME280_humidity;BME280_pressure;Samples;Min_cycle;Max_cycle;Signal;HPM_P1;HPM_P2
2022/11/29 00:01:11;;;;;;;9.47;7.77;;;;;;;7.03;93.03;99877.28;5073059;28;20191;-54
2022/11/29 00:03:37;;;;;;;7.37;6.60;;;;;;;7.04;92.49;99878.16;5072517;28;20198;-54
2022/11/29 00:06:07;;;;;;;7.70;6.47;;;;;;;6.50;92.19;99785.97;5072515;28;20613;-54
2022/11/29 00:08:34;;;;;;;7.63;6.80;;;;;;;7.02;92.18;99877.25;5072609;28;20194;-54
2022/11/29 00:11:07;;;;;;;8.60;7.23;;;;;;;7.04;92.51;99880.72;5072548;28;20195;-54
2022/11/29 00:13:34;;;;;;;7.63;6.87;;;;;;;7.02;92.06;99877.25;5072458;28;20199;-54
2022/11/29 00:16:04;;;;;;;8.30;6.67;;;;;;;7.02;92.40;99878.13;5072323;28;20657;-54
2022/11/29 00:18:31;;;;;;;8.00;6.97;;;;;;;7.04;92.14;99879.03;5072547;28;20217;-54
2022/11/29 00:20:58;;;;;;;9.63;7.80;;;;;;;7.05;92.88;99875.69;5072481;28;20195;-54
2022/11/29 00:23:25;;;;;;;8.87;6.87;;;;;;;7.02;92.51;99879.81;5072143;28;20190;-54
2022/11/29 00:25:52;;;;;;;9.90;7.37;;;;;;;7.04;92.37;99870.50;5072148;28;20205;-54
2022/11/29 00:28:21;;;;;;;8.90;7.43;;;;;;;7.03;92.78;99872.19;5072151;28;20195;-54
2022/11/29 00:30:47;;;;;;;10.70;8.17;;;;;;;7.06;92.85;99879.06;5072254;28;20191;-54
2022/11/29 00:33:14;;;;;;;10.43;7.93;;;;;;;7.06;92.85;99876.53;5071642;28;20191;-54
2022/11/29 00:35:41;;;;;;;10.10;8.83;;;;;;;7.03;92.94;99871.34;5072381;28;20231;-54
2022/11/29 00:38:08;;;;;;;8.57;7.63;;;;;;;6.87;94.05;99846.03;5071979;28;20275;-54
2022/11/29 00:40:35;;;;;;;9.63;7.73;;;;;;;7.00;94.59;99868.66;5072041;28;20183;-54
2022/11/29 00:43:01;;;;;;;8.90;7.20;;;;;;;6.96;94.34;99859.13;5071904;28;20193;-54
2022/11/29 00:45:29;;;;;;;7.77;6.97;;;;;;;6.98;94.55;99860.94;5072245;28;20214;-54
2022/11/29 00:47:56;;;;;;;8.77;6.40;;;;;;;7.02;95.10;99861.91;5071836;28;20195;-54
2022/11/29 00:50:23;;;;;;;9.07;6.83;;;;;;;7.00;94.38;99859.28;5071778;28;20679;-54
2022/11/29 00:52:50;;;;;;;7.03;6.37;;;;;;;7.01;94.79;99866.16;5071809;28;20644;-54
2022/11/29 00:55:17;;;;;;;9.87;7.23;;;;;;;6.95;93.06;99863.38;5071843;28;20195;-54
2022/11/29 00:57:44;;;;;;;7.57;6.77;;;;;;;6.99;92.26;99864.34;5072064;28;20225;-54
2022/11/29 01:00:12;;;;;;;8.37;7.00;;;;;;;6.63;92.43;99802.59;5072041;28;20243;-54
2022/11/29 01:02:40;;;;;;;6.57;5.87;;;;;;;7.01;92.20;99857.59;5071982;28;20192;-54
2022/11/29 01:05:07;;;;;;;8.80;6.37;;;;;;;7.00;91.11;99856.72;5071882;28;20197;-54
2022/11/29 01:07:34;;;;;;;8.50;6.67;;;;;;;7.01;91.58;99855.06;5069796;28;20256;-54
2022/11/29 01:10:00;;;;;;;6.57;5.93;;;;;;;7.00;91.80;99854.19;5051682;28;20191;-54
2022/11/29 01:12:27;;;;;;;8.37;6.73;;;;;;;6.96;92.85;99839.56;5051563;28;20662;-53
2022/11/29 01:14:54;;;;;;;7.77;6.73;;;;;;;7.07;93.05;99853.59;5048383;28;20574;-54
2022/11/29 01:17:21;;;;;;;6.93;6.17;;;;;;;7.05;93.02;99842.47;5054388;28;20219;-54
2022/11/29 01:19:49;;;;;;;8.13;7.07;;;;;;;7.06;93.19;99849.28;5058344;28;20202;-54
2022/11/29 01:22:16;;;;;;;9.90;8.37;;;;;;;7.08;93.59;99836.59;5051811;28;20194;-54
2022/11/29 01:24:42;;;;;;;9.23;8.30;;;;;;;7.06;93.53;99830.53;5052078;28;20198;-54
2022/11/29 01:27:09;;;;;;;11.53;9.27;;;;;;;7.08;93.40;99828.94;5051571;28;20206;-54
2022/11/29 01:29:36;;;;;;;10.93;9.00;;;;;;;7.09;93.81;99830.66;5051750;28;20285;-54
2022/11/29 01:32:03;;;;;;;11.37;9.77;;;;;;;7.11;93.97;99834.16;5051455;28;20238;-54
2022/11/29 01:34:30;;;;;;;11.43;10.20;;;;;;;7.14;94.28;99836.81;5051461;28;20234;-54
2022/11/29 01:36:58;;;;;;;13.90;11.80;;;;;;;7.14;94.37;99831.72;5051276;28;20447;-54
2022/11/29 01:39:25;;;;;;;12.70;10.83;;;;;;;7.09;94.62;99820.44;5051608;28;20202;-54
2022/11/29 01:41:52;;;;;;;13.43;11.00;;;;;;;7.16;95.03;99837.72;5051603;28;20191;-54
2022/11/29 01:45:01;;;;;;;16.00;11.50;;;;;;;7.13;94.76;99830.84;5053767;28;20212;-54
2022/11/29 01:47:28;;;;;;;13.83;11.10;;;;;;;7.10;95.71;99833.28;5045257;28;20738;-54
2022/11/29 01:49:55;;;;;;;14.67;11.97;;;;;;;7.09;95.93;99828.97;5041299;28;20199;-54
2022/11/29 01:52:27;;;;;;;15.02;13.40;;;;;;;7.13;96.45;99832.50;5033781;28;20506;-54
2022/11/29 01:54:58;;;;;;;12.87;11.27;;;;;;;7.17;95.65;99834.34;5035394;28;20187;-54
2022/11/29 01:57:25;;;;;;;14.67;11.60;;;;;;;7.20;95.25;99831.91;5034976;28;20752;-54
2022/11/29 01:59:56;;;;;;;12.70;10.67;;;;;;;7.11;93.97;99823.94;5034942;28;20188;-54
2022/11/29 02:02:30;;;;;;;13.00;10.93;;;;;;;7.11;94.14;99824.78;5035236;28;20193;-54
2022/11/29 02:04:59;;;;;;;13.07;10.57;;;;;;;7.04;94.28;99815.16;5035587;28;20253;-54
2022/11/29 02:07:27;;;;;;;13.60;11.20;;;;;;;7.10;94.86;99815.41;5040136;28;20552;-54
2022/11/29 02:09:54;;;;;;;13.37;11.00;;;;;;;7.11;94.88;99816.28;5046270;28;20198;-54
2022/11/29 02:12:30;;;;;;;17.17;12.07;;;;;;;7.10;95.51;99823.06;5035037;28;20193;-54
2022/11/29 02:15:14;;;;;;;13.30;11.03;;;;;;;6.66;96.05;99744.00;5034759;28;20203;-54
2022/11/29 02:17:54;;;;;;;15.03;11.30;;;;;;;7.09;95.90;99816.19;5048334;28;20211;-54
2022/11/29 02:20:55;;;;;;;14.63;12.23;;;;;;;7.10;96.24;99819.63;5034776;28;20651;-54
2022/11/29 02:23:52;;;;;;;14.83;12.07;;;;;;;7.11;95.79;99822.22;5034691;28;20662;-54
2022/11/29 02:26:36;;;;;;;15.27;12.60;;;;;;;7.09;95.91;99823.00;5021750;28;20221;-54
2022/11/29 02:29:31;;;;;;;15.00;12.20;;;;;;;7.14;95.64;99824.88;5035275;28;20200;-54
2022/11/29 02:32:25;;;;;;;14.27;11.93;;;;;;;7.14;95.61;99824.03;5012542;28;20185;-54
2022/11/29 02:35:07;;;;;;;16.97;15.17;;;;;;;7.21;95.80;99828.53;5033372;28;20473;-55
2022/11/29 02:37:49;;;;;;;17.57;13.77;;;;;;;7.22;95.72;99829.41;5035029;28;20223;-54
2022/11/29 02:40:31;;;;;;;15.97;13.70;;;;;;;7.20;95.12;99837.00;5034309;28;20195;-54
2022/11/29 02:43:23;;;;;;;16.27;13.33;;;;;;;7.15;95.30;99830.88;5034337;28;20262;-54
2022/11/29 02:46:07;;;;;;;18.17;13.03;;;;;;;7.14;95.39;99832.56;5034488;28;20208;-54
2022/11/29 02:48:55;;;;;;;18.70;16.27;;;;;;;7.18;95.79;99836.09;5051238;28;20446;-54
2022/11/29 02:51:29;;;;;;;18.17;14.37;;;;;;;7.19;95.54;99832.72;5036665;28;20196;-54
2022/11/29 02:54:00;;;;;;;17.97;14.70;;;;;;;6.94;95.78;99795.25;5034030;28;20253;-54
2022/11/29 02:56:34;;;;;;;19.63;14.47;;;;;;;7.09;95.94;99823.88;5033253;28;20186;-54
2022/11/29 02:59:10;;;;;;;17.67;14.90;;;;;;;7.07;96.10;99827.19;5033789;28;20229;-54
2022/11/29 03:01:45;;;;;;;15.93;13.47;;;;;;;7.01;96.44;99834.63;5033875;28;20196;-54
2022/11/29 03:04:21;;;;;;;17.57;14.20;;;;;;;6.96;96.06;99831.03;5033833;28;20286;-54
2022/11/29 03:06:55;;;;;;;16.43;13.03;;;;;;;6.95;96.29;99839.53;5034279;28;20212;-54
2022/11/29 03:09:32;;;;;;;19.07;15.70;;;;;;;6.92;96.38;99831.75;5033684;28;20688;-54
2022/11/29 03:12:07;;;;;;;22.07;18.03;;;;;;;6.87;96.06;99835.81;5033642;28;20657;-54
2022/11/29 03:14:47;;;;;;;23.07;18.23;;;;;;;6.85;97.17;99828.09;5033718;28;20652;-55
2022/11/29 03:17:25;;;;;;;22.10;17.47;;;;;;;6.82;96.73;99832.22;5034074;28;20185;-54
2022/11/29 03:20:06;;;;;;;24.60;17.33;;;;;;;6.84;97.35;99831.47;5033482;28;20205;-54
2022/11/29 03:22:43;;;;;;;22.07;17.27;;;;;;;6.79;96.97;99814.22;5033648;28;20188;-54
2022/11/29 03:25:16;;;;;;;22.57;16.47;;;;;;;6.77;97.80;99818.44;5033333;28;20336;-54
2022/11/29 03:27:48;;;;;;;21.13;16.53;;;;;;;6.84;97.63;99830.63;5033411;28;20690;-54
2022/11/29 03:30:18;;;;;;;22.73;16.83;;;;;;;6.88;97.61;99830.78;5033853;28;20188;-54
2022/11/29 03:32:52;;;;;;;21.90;17.30;;;;;;;6.85;96.98;99828.09;5033147;28;20660;-54
2022/11/29 03:35:25;;;;;;;22.83;17.50;;;;;;;6.92;97.15;99832.59;5033348;28;20600;-54
2022/11/29 03:38:02;;;;;;;22.07;17.07;;;;;;;6.89;97.47;99818.88;5033587;28;20279;-54
2022/11/29 03:40:38;;;;;;;22.50;17.13;;;;;;;6.89;97.13;99818.88;5033355;28;20191;-54
2022/11/29 03:43:10;;;;;;;21.75;17.65;;;;;;;6.95;97.78;99822.50;5032882;28;20436;-54
2022/11/29 03:45:44;;;;;;;20.73;15.97;;;;;;;6.94;98.25;99820.78;5033292;28;20192;-54
2022/11/29 03:48:17;;;;;;;20.20;15.93;;;;;;;6.98;97.56;99827.72;5033087;28;20194;-54
2022/11/29 03:50:51;;;;;;;23.67;16.57;;;;;;;6.92;97.71;99829.22;5033405;28;20197;-54
2022/11/29 03:53:31;;;;;;;22.70;17.33;;;;;;;6.48;98.50;99744.19;5033006;28;20202;-54
2022/11/29 03:56:01;;;;;;;22.77;17.37;;;;;;;6.91;98.44;99827.47;5032842;28;20196;-54
2022/11/29 03:58:50;;;;;;;24.83;18.50;;;;;;;6.93;97.91;99833.47;5032674;28;20236;-54
2022/11/29 04:01:55;;;;;;;23.10;18.10;;;;;;;6.92;98.12;99829.22;5032673;28;20660;-54
2022/11/29 04:05:01;;;;;;;22.33;18.60;;;;;;;6.96;98.62;99836.16;5032749;28;20202;-54
2022/11/29 04:07:44;;;;;;;25.27;19.67;;;;;;;6.93;98.40;99836.91;5032621;28;20245;-54
2022/11/29 04:10:29;;;;;;;28.37;20.77;;;;;;;6.95;98.18;99835.28;5038004;28;20196;-54
2022/11/29 04:13:34;;;;;;;28.47;21.43;;;;;;;6.95;98.14;99839.53;5051674;28;20609;-54
2022/11/29 04:16:17;;;;;;;30.33;21.37;;;;;;;6.99;98.29;99842.25;5072304;28;20191;-54
2022/11/29 04:19:06;;;;;;;31.07;21.97;;;;;;;6.90;98.56;99818.03;5072466;28;20566;-54
2022/11/29 04:22:07;;;;;;;31.83;24.20;;;;;;;6.98;98.56;99837.06;5072312;28;20209;-54
2022/11/29 04:25:16;;;;;;;31.40;22.60;;;;;;;6.93;98.00;99836.91;5072095;28;20195;-54
2022/11/29 04:28:10;;;;;;;37.65;30.02;;;;;;;6.91;98.92;99830.00;5060533;28;20443;-54
2022/11/29 04:30:47;;;;;;;30.80;24.20;;;;;;;6.98;98.95;99840.50;5052449;28;20198;-54
2022/11/29 04:33:58;;;;;;;32.97;23.73;;;;;;;6.97;98.45;99840.44;5052346;28;20208;-54
2022/11/29 04:36:52;;;;;;;30.60;22.50;;;;;;;7.00;98.22;99841.41;5051656;28;20683;-54
2022/11/29 04:39:56;;;;;;;32.17;23.20;;;;;;;7.02;98.71;99839.81;5052192;28;20583;-54
2022/11/29 04:42:48;;;;;;;30.73;23.17;;;;;;;7.05;99.05;99839.91;5032146;28;20192;-54
2022/11/29 04:45:46;;;;;;;35.70;24.60;;;;;;;7.01;99.42;99839.72;5031914;28;20591;-54
2022/11/29 04:48:32;;;;;;;35.60;24.63;;;;;;;6.98;99.37;99839.63;5031605;28;20195;-54
2022/11/29 04:51:12;;;;;;;33.13;24.03;;;;;;;6.97;99.58;99846.44;5031980;28;20211;-54
2022/11/29 04:53:59;;;;;;;32.07;24.30;;;;;;;6.96;99.55;99849.78;5032212;28;20567;-54
2022/11/29 04:56:38;;;;;;;35.63;23.73;;;;;;;6.99;100.00;99854.16;5035629;28;20190;-54
2022/11/29 04:59:11;;;;;;;35.93;26.40;;;;;;;6.99;99.14;99851.59;5055502;28;20774;-56
2022/11/29 05:01:58;;;;;;;35.80;25.40;;;;;;;6.98;99.82;99849.84;5064777;28;20792;-54
2022/11/29 05:04:32;;;;;;;35.37;24.40;;;;;;;6.97;99.46;99859.22;5071722;28;20244;-54
2022/11/29 05:07:05;;;;;;;30.50;23.33;;;;;;;6.98;99.05;99857.50;5071899;28;20192;-54
2022/11/29 05:09:55;;;;;;;30.50;23.30;;;;;;;7.03;98.85;99867.06;5071794;28;20201;-54
2022/11/29 05:12:29;;;;;;;33.07;24.13;;;;;;;6.97;99.16;99858.34;5072339;28;20191;-54
2022/11/29 05:15:16;;;;;;;35.70;24.43;;;;;;;6.96;99.41;99852.34;5071567;28;20189;-54
2022/11/29 05:17:56;;;;;;;36.20;25.07;;;;;;;7.06;99.32;99863.75;5071622;28;20195;-54
2022/11/29 05:20:34;;;;;;;33.50;24.53;;;;;;;7.03;99.61;99869.63;5074858;28;20260;-54
2022/11/29 05:23:15;;;;;;;37.13;25.20;;;;;;;7.08;99.83;99869.81;5076476;28;20187;-54
2022/11/29 05:25:47;;;;;;;33.83;25.47;;;;;;;7.10;99.13;99863.06;5075421;28;20196;-54
2022/11/29 05:28:21;;;;;;;33.60;24.80;;;;;;;7.11;99.46;99873.31;5075552;28;20196;-54
2022/11/29 05:31:14;;;;;;;35.87;25.67;;;;;;;7.13;98.92;99875.94;5075943;28;20189;-54
2022/11/29 05:34:05;;;;;;;33.47;23.70;;;;;;;7.15;99.62;99876.88;5058737;28;20275;-54
2022/11/29 05:36:43;;;;;;;37.35;27.48;;;;;;;7.13;98.68;99887.03;5075217;28;20437;-54
2022/11/29 05:39:29;;;;;;;37.17;27.37;;;;;;;7.05;98.54;99877.34;5073656;28;20217;-54
2022/11/29 05:42:12;;;;;;;37.17;26.53;;;;;;;7.08;98.20;99890.25;5075069;28;20186;-54
2022/11/29 05:44:44;;;;;;;33.50;25.07;;;;;;;7.08;98.72;99892.81;5075493;28;20190;-54
2022/11/29 05:47:18;;;;;;;34.90;25.97;;;;;;;7.09;97.48;99886.84;5075090;28;20189;-55
2022/11/29 05:49:54;;;;;;;39.30;27.30;;;;;;;7.03;98.03;99887.50;5075721;28;20188;-54
2022/11/29 05:52:24;;;;;;;38.47;27.27;;;;;;;7.02;98.29;99890.03;5074936;28;20189;-55
2022/11/29 05:55:07;;;;;;;38.30;26.37;;;;;;;7.04;98.45;99893.50;5074666;28;20729;-54
2022/11/29 05:57:41;;;;;;;36.87;26.43;;;;;;;7.06;98.60;99895.28;5064639;28;20205;-54
2022/11/29 06:00:11;;;;;;;35.53;24.90;;;;;;;7.07;97.94;99893.59;5054555;28;20218;-55
2022/11/29 06:02:49;;;;;;;32.90;24.33;;;;;;;7.04;97.56;99890.94;5035232;28;20196;-54
2022/11/29 06:05:27;;;;;;;27.37;20.87;;;;;;;7.05;97.87;99887.59;5034428;28;20191;-54
2022/11/29 06:08:01;;;;;;;29.13;21.70;;;;;;;7.03;97.24;99886.66;5034736;28;20292;-54
2022/11/29 06:10:31;;;;;;;33.07;22.93;;;;;;;7.06;97.92;99885.06;5034395;28;20197;-54
2022/11/29 06:13:10;;;;;;;31.77;23.07;;;;;;;7.10;97.42;99889.50;5034588;28;20187;-54
2022/11/29 06:16:07;;;;;;;34.00;23.33;;;;;;;7.07;96.97;99885.94;5034984;28;20191;-54
2022/11/29 06:18:57;;;;;;;34.33;23.40;;;;;;;7.12;97.67;99897.19;5034235;28;20216;-55
2022/11/29 06:21:39;;;;;;;31.30;23.40;;;;;;;7.16;97.15;99893.94;5034356;28;20305;-54
2022/11/29 06:24:41;;;;;;;29.60;21.37;;;;;;;7.17;97.30;99897.38;5034129;28;20319;-55
2022/11/29 06:27:28;;;;;;;32.70;22.87;;;;;;;7.18;96.69;99894.88;5034006;28;20237;-55
2022/11/29 06:30:02;;;;;;;29.63;21.07;;;;;;;7.23;97.36;99893.34;5034503;28;20193;-55
2022/11/29 06:32:39;;;;;;;31.03;21.13;;;;;;;7.23;97.15;99893.34;5056385;28;20244;-54
2022/11/29 06:35:17;;;;;;;33.33;26.42;;;;;;;7.28;96.90;99893.53;5064240;28;20542;-55
2022/11/29 06:37:50;;;;;;;28.10;20.23;;;;;;;7.28;96.55;99891.81;5073951;28;20254;-55
2022/11/29 06:40:17;;;;;;;27.17;19.73;;;;;;;7.29;96.80;99891.00;5073583;28;20265;-55
2022/11/29 06:42:44;;;;;;;30.37;20.30;;;;;;;7.30;96.75;99884.22;5073923;28;20199;-55
2022/11/29 06:45:13;;;;;;;29.00;21.53;;;;;;;7.37;96.64;99887.03;5073808;28;20192;-55
2022/11/29 06:47:44;;;;;;;32.10;23.57;;;;;;;7.39;96.20;99880.28;5073676;28;20279;-55
2022/11/29 06:50:28;;;;;;;30.43;21.63;;;;;;;7.39;96.70;99887.94;5073725;28;20195;-55
2022/11/29 06:53:05;;;;;;;34.83;22.20;;;;;;;7.41;96.59;99883.78;5074394;28;20305;-55
2022/11/29 06:55:42;;;;;;;31.00;22.00;;;;;;;7.47;97.16;99885.69;5074035;28;20193;-55
2022/11/29 06:58:21;;;;;;;32.97;21.93;;;;;;;7.54;97.08;99885.94;5073464;28;20277;-55
2022/11/29 07:00:55;;;;;;;31.83;21.20;;;;;;;7.56;96.65;99888.53;5074225;28;20217;-55
2022/11/29 07:03:34;;;;;;;32.07;21.33;;;;;;;7.57;96.86;99890.28;5073219;28;20191;-54
2022/11/29 07:06:08;;;;;;;33.67;24.13;;;;;;;7.54;97.00;99887.63;5073402;28;20224;-53
2022/11/29 07:08:39;;;;;;;30.77;21.97;;;;;;;7.54;97.61;99885.06;5073989;28;20245;-53
2022/11/29 07:11:07;;;;;;;33.93;22.70;;;;;;;7.49;96.80;99887.47;5073312;28;20187;-53
2022/11/29 07:13:34;;;;;;;36.58;24.67;;;;;;;7.55;96.93;99890.22;5072745;28;20472;-54
2022/11/29 07:16:09;;;;;;;36.40;23.77;;;;;;;7.59;96.78;99889.50;5073239;28;20192;-54
2022/11/29 07:18:47;;;;;;;34.03;23.90;;;;;;;7.66;96.46;99890.59;5073083;28;20280;-53
2022/11/29 07:21:22;;;;;;;32.00;21.27;;;;;;;7.65;95.97;99887.16;5072829;28;20537;-53
2022/11/29 07:24:07;;;;;;;31.37;20.63;;;;;;;7.63;95.95;99890.50;5073115;28;20652;-57
2022/11/29 07:26:43;;;;;;;28.07;19.57;;;;;;;7.64;95.19;99894.78;5072936;28;20202;-53
2022/11/29 07:29:24;;;;;;;26.67;20.63;;;;;;;7.63;95.34;99893.06;5073193;28;20253;-54
2022/11/29 07:32:03;;;;;;;29.03;19.80;;;;;;;7.69;95.01;99890.72;5072776;28;20596;-54
2022/11/29 07:34:39;;;;;;;30.77;22.27;;;;;;;7.69;95.66;99886.44;5072922;28;20283;-53
2022/11/29 07:37:16;;;;;;;31.60;21.20;;;;;;;7.75;95.29;99890.03;5072232;28;20214;-54
2022/11/29 07:39:57;;;;;;;28.57;21.17;;;;;;;7.76;94.83;99881.53;5041427;28;20212;-54
2022/11/29 07:42:29;;;;;;;30.53;21.13;;;;;;;7.81;95.06;99883.44;5052547;28;20193;-54
2022/11/29 07:45:02;;;;;;;28.10;18.97;;;;;;;7.84;95.61;99886.09;5052440;28;20192;-53
2022/11/29 07:47:28;;;;;;;28.87;18.30;;;;;;;7.88;95.09;99887.06;5051094;28;20731;-54
2022/11/29 07:49:55;;;;;;;23.90;17.67;;;;;;;7.84;94.63;99888.66;5052312;28;20199;-54
2022/11/29 07:52:22;;;;;;;26.80;17.93;;;;;;;7.87;94.45;99880.22;5048411;28;20199;-54
2022/11/29 07:54:50;;;;;;;28.07;18.50;;;;;;;7.92;94.64;99884.66;5032276;28;20262;-54
2022/11/29 07:57:17;;;;;;;26.63;19.00;;;;;;;7.96;94.71;99883.94;5032164;28;20199;-53
2022/11/29 07:59:43;;;;;;;28.20;19.67;;;;;;;7.93;95.17;99880.41;5031995;28;20278;-53
2022/11/29 08:02:11;;;;;;;26.47;17.37;;;;;;;8.05;95.32;99891.03;5031991;28;20196;-54
2022/11/29 08:04:41;;;;;;;22.07;16.10;;;;;;;7.98;94.99;99889.09;5032112;28;20193;-54
2022/11/29 08:07:08;;;;;;;24.93;17.10;;;;;;;8.08;94.52;99886.00;5032533;28;20245;-54
2022/11/29 08:09:35;;;;;;;24.65;19.23;;;;;;;8.13;93.93;99892.16;5031365;28;20437;-54
2022/11/29 08:12:03;;;;;;;23.63;18.23;;;;;;;8.19;93.45;99898.34;5032028;28;20189;-54
2022/11/29 08:14:31;;;;;;;25.73;17.20;;;;;;;8.23;92.82;99897.63;5032420;28;20202;-53
2022/11/29 08:16:58;;;;;;;24.70;18.63;;;;;;;8.26;92.17;99896.84;5033724;28;20283;-54
2022/11/29 08:19:25;;;;;;;23.13;15.27;;;;;;;8.27;91.63;99902.03;5051984;28;20280;-55
2022/11/29 08:21:52;;;;;;;21.47;16.37;;;;;;;8.26;91.70;99899.41;5052003;28;20673;-54
2022/11/29 08:24:19;;;;;;;22.98;18.30;;;;;;;8.34;92.29;99904.81;5050938;28;20442;-54
2022/11/29 08:26:46;;;;;;;20.27;15.67;;;;;;;8.21;91.46;99878.78;5051764;28;20199;-54
2022/11/29 08:29:14;;;;;;;18.77;14.17;;;;;;;8.42;91.14;99899.09;5069617;28;20204;-55
2022/11/29 08:31:41;;;;;;;15.37;12.53;;;;;;;8.42;90.82;99899.09;5071035;28;20264;-55
2022/11/29 08:34:09;;;;;;;18.83;14.17;;;;;;;8.45;91.13;99895.75;5071824;28;20191;-55
2022/11/29 08:36:36;;;;;;;19.47;13.10;;;;;;;8.48;91.41;99904.41;5048303;28;20209;-55
2022/11/29 08:39:04;;;;;;;19.63;13.83;;;;;;;8.06;91.74;99826.25;5033974;28;20235;-54
2022/11/29 08:41:32;;;;;;;15.57;12.80;;;;;;;8.50;91.67;99892.53;5032157;28;20199;-55
2022/11/29 08:43:58;;;;;;;15.87;12.40;;;;;;;8.48;91.39;99889.06;5031845;28;20729;-54
2022/11/29 08:47:34;;;;;;;17.20;12.07;;;;;;;8.48;91.37;99883.06;5031791;28;20188;-54
2022/11/29 08:49:13;;;;;;;19.27;13.13;;;;;;;8.47;91.67;99882.19;5031331;28;20203;-55
2022/11/29 08:51:40;;;;;;;21.20;16.23;;;;;;;8.53;91.85;99884.06;5031305;28;20219;-55
2022/11/29 08:54:06;;;;;;;17.27;12.93;;;;;;;8.46;91.57;99875.31;5030890;28;20226;-55
2022/11/29 08:56:33;;;;;;;16.53;13.30;;;;;;;8.61;91.76;99880.91;5057254;28;20190;-54
2022/11/29 08:59:00;;;;;;;14.57;12.13;;;;;;;8.61;91.86;99878.34;5071693;28;20213;-54
2022/11/29 09:01:29;;;;;;;14.73;11.97;;;;;;;8.60;90.77;99879.16;5064957;28;20199;-55
2022/11/29 09:04:06;;;;;;;16.90;14.27;;;;;;;8.60;90.13;99863.81;5070705;28;20437;-55
2022/11/29 09:06:37;;;;;;;15.23;12.57;;;;;;;8.68;90.02;99864.88;5064929;28;20184;-55
2022/11/29 09:09:04;;;;;;;16.23;13.23;;;;;;;8.76;90.96;99871.09;5040228;28;20191;-55
2022/11/29 09:11:34;;;;;;;14.47;12.57;;;;;;;8.73;91.33;99875.28;5051319;28;20203;-55
2022/11/29 09:14:03;;;;;;;16.97;12.70;;;;;;;8.50;91.83;99848.13;5051243;28;20195;-54
2022/11/29 09:16:35;;;;;;;19.23;14.07;;;;;;;8.70;91.80;99860.72;5053145;28;20257;-55
2022/11/29 09:19:02;;;;;;;14.80;11.13;;;;;;;8.72;90.51;99851.38;5069809;28;20191;-54
2022/11/29 09:21:31;;;;;;;13.50;10.50;;;;;;;8.70;89.69;99854.72;5070796;28;20279;-54
2022/11/29 09:24:00;;;;;;;16.67;11.07;;;;;;;8.80;88.79;99870.38;5071111;28;20210;-54
2022/11/29 09:26:29;;;;;;;18.88;14.73;;;;;;;8.72;89.72;99846.25;5070529;28;20438;-54
2022/11/29 09:28:59;;;;;;;14.73;12.13;;;;;;;8.88;90.05;99845.84;5050195;28;20241;-56
2022/11/29 09:31:27;;;;;;;22.40;18.17;;;;;;;8.94;90.16;99851.97;5045042;28;20724;-55
2022/11/29 09:33:55;;;;;;;16.80;12.57;;;;;;;9.01;89.15;99838.53;5050660;28;20190;-54
2022/11/29 09:36:22;;;;;;;17.33;13.63;;;;;;;8.92;89.31;99823.75;5050404;28;20199;-54
2022/11/29 09:38:49;;;;;;;15.93;11.70;;;;;;;9.12;89.12;99830.28;5050471;28;20191;-54
2022/11/29 09:41:36;;;;;;;19.70;14.07;;;;;;;9.17;88.62;99827.84;5050436;28;20266;-54
2022/11/29 09:44:11;;;;;;;17.47;13.57;;;;;;;9.27;89.85;99817.00;5049563;28;20184;-54
2022/11/29 09:46:46;;;;;;;14.40;11.83;;;;;;;9.36;89.93;99823.25;5048886;28;20180;-54
2022/11/29 09:49:37;;;;;;;16.10;12.37;;;;;;;9.31;88.57;99816.28;5047452;28;20187;-55
2022/11/29 09:52:10;;;;;;;17.57;13.73;;;;;;;9.26;88.39;99817.81;5049260;28;20203;-54
2022/11/29 09:54:48;;;;;;;19.00;15.00;;;;;;;9.23;89.06;99820.34;5054896;28;20238;-54
2022/11/29 09:57:16;;;;;;;23.87;17.13;;;;;;;9.22;89.65;99821.16;5050683;28;20260;-54
2022/11/29 09:59:47;;;;;;;18.90;14.83;;;;;;;9.25;90.64;99827.25;5050676;28;20215;-54
2022/11/29 10:02:18;;;;;;;16.87;13.40;;;;;;;9.28;90.10;99817.06;5050531;28;20560;-55
2022/11/29 10:04:52;;;;;;;21.00;15.03;;;;;;;9.23;89.40;99818.63;5054209;28;20594;-54
2022/11/29 10:07:25;;;;;;;20.10;15.13;;;;;;;9.33;89.70;99814.63;5071579;28;20603;-54
2022/11/29 10:09:56;;;;;;;17.40;14.03;;;;;;;9.41;89.82;99810.56;5074955;28;20233;-54
2022/11/29 10:12:31;;;;;;;19.70;16.43;;;;;;;9.39;89.40;99810.50;5074464;28;20726;-54
2022/11/29 10:15:07;;;;;;;22.20;16.47;;;;;;;9.36;89.27;99815.56;5074436;28;20190;-54
2022/11/29 10:17:38;;;;;;;23.05;18.60;;;;;;;9.46;89.70;99812.41;5074266;28;20448;-54
2022/11/29 10:20:14;;;;;;;21.23;18.57;;;;;;;9.62;89.76;99808.53;5072984;28;20493;-54
2022/11/29 10:22:48;;;;;;;22.67;18.37;;;;;;;9.65;88.67;99808.59;5074157;28;20187;-54
2022/11/29 10:25:24;;;;;;;18.23;15.87;;;;;;;9.64;88.66;99811.13;5074393;28;20215;-55
2022/11/29 10:27:51;;;;;;;17.47;14.30;;;;;;;9.11;88.38;99723.47;5072810;28;20191;-53
2022/11/29 10:30:18;;;;;;;14.40;12.17;;;;;;;9.57;87.92;99809.22;5047680;28;20228;-54
2022/11/29 10:32:48;;;;;;;20.57;13.60;;;;;;;9.45;88.04;99802.09;5054052;28;20252;-54
2022/11/29 10:35:19;;;;;;;17.37;13.23;;;;;;;9.36;88.41;99800.19;5054216;28;20276;-54
2022/11/29 10:37:47;;;;;;;17.23;13.70;;;;;;;9.39;89.41;99799.41;5053671;28;20196;-53
2022/11/29 10:40:17;;;;;;;16.20;12.60;;;;;;;9.39;89.59;99805.38;5047564;28;20730;-55
2022/11/29 10:42:52;;;;;;;16.83;13.67;;;;;;;9.40;89.90;99794.28;5044310;28;20192;-54
2022/11/29 10:45:28;;;;;;;17.80;12.67;;;;;;;9.44;89.00;99798.69;5044656;28;20187;-54
2022/11/29 10:47:58;;;;;;;16.50;12.47;;;;;;;9.45;88.61;99797.84;5042588;28;20256;-54
2022/11/29 10:50:29;;;;;;;17.20;13.40;;;;;;;9.46;89.54;99796.16;5072734;28;20203;-54
2022/11/29 10:53:00;;;;;;;13.97;10.70;;;;;;;9.42;88.69;99790.06;5073602;28;20756;-54
2022/11/29 10:55:31;;;;;;;13.47;9.50;;;;;;;9.22;88.71;99767.31;5073406;28;20661;-54
2022/11/29 10:58:13;;;;;;;15.67;11.23;;;;;;;9.36;89.59;99791.63;5071412;28;20226;-54
2022/11/29 11:00:45;;;;;;;11.90;8.57;;;;;;;9.23;88.94;99782.72;5065272;28;20219;-54
2022/11/29 11:03:17;;;;;;;11.80;8.80;;;;;;;9.26;88.38;99789.63;5073466;28;20190;-54
2022/11/29 11:05:58;;;;;;;11.37;9.33;;;;;;;9.28;89.70;99782.88;5051457;28;20192;-54
2022/11/29 11:08:25;;;;;;;11.50;9.60;;;;;;;9.31;89.35;99791.47;5033907;28;20207;-54
2022/11/29 11:10:54;;;;;;;12.47;9.33;;;;;;;9.32;89.00;99784.66;5033543;28;20201;-54
2022/11/29 11:13:22;;;;;;;12.80;10.20;;;;;;;9.38;88.97;99783.13;5033287;28;20185;-54
2022/11/29 11:15:49;;;;;;;15.23;9.27;;;;;;;9.42;89.31;99774.66;5058084;28;20208;-54
2022/11/29 11:18:21;;;;;;;11.27;9.00;;;;;;;9.48;89.12;99774.84;5046728;28;20201;-55
2022/11/29 11:20:53;;;;;;;14.40;10.13;;;;;;;9.58;88.64;99780.19;5032783;28;20297;-54
2022/11/29 11:23:25;;;;;;;13.27;9.27;;;;;;;9.56;88.05;99777.56;5033162;28;20283;-54
2022/11/29 11:25:57;;;;;;;10.77;8.83;;;;;;;9.53;87.46;99782.66;5033438;28;20249;-54
2022/11/29 11:28:27;;;;;;;13.70;9.73;;;;;;;9.53;87.90;99777.53;5033748;28;20212;-55
2022/11/29 11:30:57;;;;;;;12.27;9.33;;;;;;;9.58;88.06;99775.06;5033687;28;20200;-55
2022/11/29 11:33:26;;;;;;;10.97;9.20;;;;;;;9.58;87.85;99770.81;5032940;28;20223;-54
2022/11/29 11:36:12;;;;;;;10.60;8.70;;;;;;;9.48;88.15;99769.69;5032654;28;20255;-54
2022/11/29 11:38:49;;;;;;;12.80;10.40;;;;;;;9.38;88.25;99757.50;5042294;28;20196;-55
2022/11/29 11:41:22;;;;;;;11.87;8.83;;;;;;;9.42;88.77;99772.09;5042665;28;20226;-53
2022/11/29 11:43:53;;;;;;;11.37;8.97;;;;;;;9.39;88.49;99763.50;5045934;28;20224;-56
2022/11/29 11:46:20;;;;;;;11.57;9.23;;;;;;;9.41;88.64;99766.97;5050678;28;20188;-55
2022/11/29 11:48:47;;;;;;;9.40;8.13;;;;;;;9.38;88.08;99769.44;5052882;28;20195;-53
2022/11/29 11:51:24;;;;;;;10.47;8.67;;;;;;;9.40;87.81;99765.22;5049100;28;20450;-53
2022/11/29 11:53:56;;;;;;;9.90;8.80;;;;;;;9.37;88.49;99773.69;5049224;28;21020;-53
2022/11/29 11:56:26;;;;;;;14.00;8.80;;;;;;;9.41;89.21;99772.09;5051663;28;20207;-54
2022/11/29 11:58:56;;;;;;;11.03;9.00;;;;;;;9.21;90.03;99756.19;5052295;28;20195;-54
2022/11/29 12:01:29;;;;;;;11.63;9.27;;;;;;;9.33;89.96;99766.78;5052442;28;20319;-53
2022/11/29 12:04:02;;;;;;;10.77;8.43;;;;;;;9.31;89.93;99767.56;5052052;28;20188;-53